メインページ
METAR-TAF:

METAR-TAF

空港 :

ザーボル空港

Zabol, イラン

緯度: 31-20N, 経度: 061-29E, 海抜: 489m

現時点の気象観測

当レポートは25分前の10:00(UTC)に作成
の風 23kt
気温 11°C
湿度 15%
気圧 1029 hPa
視程: 5000m

METAR: OIZB 231000Z 36023KT 5000 SA NSC 11/M15 Q1029

時間: 13:55 (10:25 UTC)


TAF: 見つかりません

4,000以上の空港の気象観測と天気予報(METAR報とTAF報)

利用可能な観測所は地図上に黄色い丸と赤い丸で示す。

丸の上にカーソルを重ねると観測所名を参照できる。

次にクリックすると気象観測と天気予報を参照できる。

マップの切り替え:黒色「×」印の緑ボタンをクリックして拡大、「-」印の緑ボタンをクリックして縮小、緑色の三角印をクリックして隣りの地図に切り替え


METAR-TAF: